Time;durP1;ratioP1;P1;durP2;ratioP2;P2;SDS_P1;SDS_P2;PMS_P1;PMS_P2;Temp;Humidity;BMP_temperature;BMP_pressure;BME280_temperature;BME280_humidity;BME280_pressure;Samples;Min_cycle;Max_cycle;Signal;HPM_P1;HPM_P2
2022/09/29 00:01:12;;;;;;;1999.90;999.90;;;;;;;12.57;100.00;96344.34;5076686;28;20017;-82
2022/09/29 00:03:37;;;;;;;1999.90;999.90;;;;;;;12.64;100.00;96339.06;5078671;28;20017;-82
2022/09/29 00:06:03;;;;;;;1999.90;999.90;;;;;;;12.55;100.00;96350.19;5080373;28;20035;-82
2022/09/29 00:08:29;;;;;;;1999.90;999.90;;;;;;;12.62;100.00;96342.19;5080248;28;20088;-82
2022/09/29 00:10:56;;;;;;;1999.90;999.90;;;;;;;12.51;100.00;96341.06;5080151;28;20023;-82
2022/09/29 00:13:21;;;;;;;1999.90;999.90;;;;;;;12.57;100.00;96349.81;5081295;28;20024;-82
2022/09/29 00:15:55;;;;;;;1999.90;999.90;;;;;;;12.64;100.00;96350.03;5081094;28;20014;-78
2022/09/29 00:18:20;;;;;;;1999.90;999.90;;;;;;;12.65;100.00;96349.72;5080871;28;20021;-79
2022/09/29 00:21:04;;;;;;;1999.90;999.90;;;;;;;12.76;100.00;96350.78;5080873;28;20088;-81
2022/09/29 00:23:32;;;;;;;1999.90;999.90;;;;;;;12.78;100.00;96342.22;5080138;28;20005;-82
2022/09/29 00:26:00;;;;;;;1999.90;999.90;;;;;;;12.79;100.00;96341.88;5080543;28;20047;-82
2022/09/29 00:28:26;;;;;;;1999.90;999.90;;;;;;;12.80;100.00;96329.75;5080698;28;20024;-82
2022/09/29 00:30:51;;;;;;;1999.90;999.90;;;;;;;12.78;100.00;96337.53;5078668;28;20060;-85
2022/09/29 00:33:16;;;;;;;1999.90;999.90;;;;;;;12.76;100.00;96348.06;5078352;28;20049;-84
2022/09/29 00:35:42;;;;;;;1999.90;999.90;;;;;;;12.79;100.00;96347.34;5078136;28;20025;-81
2022/09/29 00:38:07;;;;;;;1999.90;999.90;;;;;;;12.79;100.00;96355.59;5078953;28;20027;-80
2022/09/29 00:40:33;;;;;;;1999.90;999.90;;;;;;;12.69;100.00;96349.78;5079240;28;20032;-82
2022/09/29 00:42:59;;;;;;;1999.90;999.90;;;;;;;12.75;100.00;96343.69;5079085;28;20021;-80
2022/09/29 00:45:24;;;;;;;1999.90;999.90;;;;;;;12.74;100.00;96320.19;5078727;28;20132;-80
2022/09/29 00:48:11;;;;;;;1999.90;999.90;;;;;;;12.65;100.00;96316.78;5078956;28;20012;-82
2022/09/29 00:50:44;;;;;;;1999.90;999.90;;;;;;;12.62;100.00;96336.69;5077921;28;20060;-82
2022/09/29 00:53:11;;;;;;;1999.90;999.90;;;;;;;12.64;100.00;96323.41;5078086;28;20013;-85
2022/09/29 00:56:09;;;;;;;1999.90;999.90;;;;;;;12.57;100.00;96317.72;5079775;28;20088;-76
2022/09/29 00:58:43;;;;;;;1999.90;999.90;;;;;;;12.55;100.00;96314.53;5080804;28;20081;-79
2022/09/29 01:01:11;;;;;;;1999.90;999.90;;;;;;;12.57;100.00;96305.94;5079954;28;20029;-81
2022/09/29 01:03:45;;;;;;;1999.90;999.90;;;;;;;12.65;100.00;96324.22;5079717;28;20048;-81
2022/09/29 01:06:35;;;;;;;1999.90;999.90;;;;;;;12.66;100.00;96321.09;5079467;28;20029;-80
2022/09/29 01:09:07;;;;;;;1999.90;999.90;;;;;;;12.65;100.00;96319.53;5079707;28;20017;-82
2022/09/29 01:11:33;;;;;;;1999.90;999.90;;;;;;;12.62;100.00;96292.81;5079642;28;20080;-83
2022/09/29 01:14:05;;;;;;;1999.90;999.90;;;;;;;12.65;100.00;96294.84;5079832;28;20055;-86
2022/09/29 01:16:32;;;;;;;1999.90;999.90;;;;;;;12.55;100.00;96297.28;5078471;28;20048;-85
2022/09/29 01:18:59;;;;;;;1999.90;999.90;;;;;;;12.58;100.00;96280.91;5077831;28;20013;-83
2022/09/29 01:21:48;;;;;;;1999.90;999.90;;;;;;;12.48;100.00;96273.19;5078316;28;20036;-83
2022/09/29 01:24:35;;;;;;;1999.90;999.90;;;;;;;12.37;100.00;96280.31;5078368;28;20051;-83
2022/09/29 01:27:13;;;;;;;1999.90;999.90;;;;;;;12.34;100.00;96289.25;5076747;28;20015;-80
2022/09/29 01:29:50;;;;;;;1999.90;999.90;;;;;;;12.32;100.00;96297.00;5076385;28;20101;-83
2022/09/29 01:32:36;;;;;;;1999.90;999.90;;;;;;;12.38;100.00;96298.34;5077418;28;20098;-83
2022/09/29 01:35:13;;;;;;;;;;;;;;;12.41;100.00;96311.38;5077955;28;20080;-81
2022/09/29 01:38:10;;;;;;;1999.90;999.90;;;;;;;12.53;100.00;96302.31;5075733;28;19913;-83
2022/09/29 01:40:53;;;;;;;1999.90;999.90;;;;;;;12.55;100.00;96294.53;5077230;28;20029;-79
2022/09/29 01:43:45;;;;;;;1999.90;999.90;;;;;;;12.58;100.00;96293.84;5069018;28;20009;-84
2022/09/29 01:46:19;;;;;;;1999.90;999.90;;;;;;;12.50;100.00;96286.56;5059602;28;20033;-83
2022/09/29 01:48:49;;;;;;;1999.90;999.90;;;;;;;12.49;100.00;96295.94;5075047;28;20051;-79
2022/09/29 01:51:20;;;;;;;1999.90;999.90;;;;;;;12.52;100.00;96297.97;5078207;28;20019;-78
2022/09/29 01:53:49;;;;;;;1999.90;999.90;;;;;;;12.50;100.00;96305.75;5079121;28;20017;-79
2022/09/29 01:56:24;;;;;;;1999.90;999.90;;;;;;;12.46;100.00;96311.13;5078302;28;20100;-83
2022/09/29 01:58:57;;;;;;;1999.90;999.90;;;;;;;12.53;100.00;96308.56;5075716;28;20041;-83
2022/09/29 02:01:28;;;;;;;1999.90;999.90;;;;;;;12.46;100.00;96297.44;5077828;28;20021;-82
2022/09/29 02:04:01;;;;;;;1999.90;999.90;;;;;;;12.42;100.00;96310.22;5075399;28;20085;-83
2022/09/29 02:06:36;;;;;;;1999.90;999.90;;;;;;;12.49;100.00;96304.16;5075114;28;20092;-80
2022/09/29 02:09:07;;;;;;;1999.90;999.90;;;;;;;12.54;100.00;96296.47;5074123;28;20044;-80
2022/09/29 02:11:36;;;;;;;1999.90;999.90;;;;;;;12.55;100.00;96284.38;5074281;28;20029;-82
2022/09/29 02:14:15;;;;;;;1999.90;999.90;;;;;;;12.60;100.00;96278.63;5076136;28;20028;-84
2022/09/29 02:16:57;;;;;;;1999.90;999.90;;;;;;;12.63;100.00;96277.91;5075539;28;20032;-82
2022/09/29 02:19:30;;;;;;;1999.90;999.90;;;;;;;12.66;100.00;96276.41;5075393;28;20017;-83
2022/09/29 02:21:55;;;;;;;1999.90;999.90;;;;;;;12.72;100.00;96277.75;5075452;28;20036;-83
2022/09/29 02:24:22;;;;;;;1999.90;999.90;;;;;;;12.74;100.00;96273.53;5074955;28;20020;-82
2022/09/29 02:26:50;;;;;;;1999.90;999.90;;;;;;;12.71;100.00;96282.47;5074226;28;20031;-84
2022/09/29 02:29:17;;;;;;;1999.90;999.90;;;;;;;12.69;100.00;96284.75;5075796;28;20043;-84
2022/09/29 02:31:43;;;;;;;1999.90;999.90;;;;;;;12.66;100.00;96288.19;5076238;28;20097;-84
2022/09/29 02:34:13;;;;;;;1999.90;999.90;;;;;;;12.67;100.00;96280.75;5076602;28;20028;-81
2022/09/29 02:37:01;;;;;;;1999.90;999.90;;;;;;;12.64;100.00;96273.22;5076677;28;20085;-80
2022/09/29 02:39:50;;;;;;;1999.90;999.90;;;;;;;12.62;100.00;96283.78;5075205;28;20029;-84
2022/09/29 02:42:49;;;;;;;1999.90;999.90;;;;;;;12.63;100.00;96286.16;5075286;28;20001;-84
2022/09/29 02:45:34;;;;;;;1999.90;999.90;;;;;;;12.77;100.00;96294.78;5076215;28;20035;-82
2022/09/29 02:48:10;;;;;;;1999.90;999.90;;;;;;;12.78;100.00;96298.34;5077020;28;20021;-84
2022/09/29 02:50:59;;;;;;;1999.90;999.90;;;;;;;12.60;100.00;96295.06;5057849;28;20132;-83
2022/09/29 02:53:24;;;;;;;1999.90;999.90;;;;;;;12.62;100.00;96314.75;5057309;28;20017;-80
2022/09/29 02:56:12;;;;;;;1999.90;999.90;;;;;;;12.59;100.00;96309.94;5057388;28;20026;-81
2022/09/29 02:58:43;;;;;;;1999.90;999.90;;;;;;;12.58;100.00;96319.31;5056331;28;20040;-81
2022/09/29 03:01:09;;;;;;;1999.90;999.90;;;;;;;12.62;100.00;96325.72;5056722;28;20002;-81
2022/09/29 03:03:34;;;;;;;1999.90;999.90;;;;;;;12.65;100.00;96326.97;5053071;28;20068;-79
2022/09/29 03:05:59;;;;;;;1999.90;999.90;;;;;;;12.66;100.00;96321.09;5043757;28;20068;-80
2022/09/29 03:08:25;;;;;;;1999.90;999.90;;;;;;;12.73;100.00;96326.81;5079155;28;20043;-80
2022/09/29 03:10:50;;;;;;;1999.90;999.90;;;;;;;12.79;100.00;96341.88;5066392;28;20040;-81
2022/09/29 03:13:15;;;;;;;1999.90;999.90;;;;;;;12.76;100.00;96334.34;5063887;28;20093;-81
2022/09/29 03:15:41;;;;;;;1999.90;999.90;;;;;;;12.77;100.00;96326.91;5066620;28;20021;-80
2022/09/29 03:18:07;;;;;;;1999.90;999.90;;;;;;;12.81;100.00;96333.31;5065951;28;20037;-81
2022/09/29 03:20:32;;;;;;;1999.90;999.90;;;;;;;12.84;100.00;96319.66;5061760;28;20104;-81
2022/09/29 03:22:58;;;;;;;1999.90;999.90;;;;;;;12.80;100.00;96328.94;5060097;28;20025;-78
2022/09/29 03:25:24;;;;;;;1999.90;999.90;;;;;;;12.74;100.00;96324.88;5060443;28;20032;-78
2022/09/29 03:27:50;;;;;;;1999.90;999.90;;;;;;;12.78;100.00;96318.31;5061077;28;20085;-78
2022/09/29 03:30:16;;;;;;;1999.90;999.90;;;;;;;12.71;100.00;96304.41;5059743;28;20116;-78
2022/09/29 03:32:42;;;;;;;1999.90;999.90;;;;;;;12.67;100.00;96317.22;5056502;28;20040;-78
2022/09/29 03:35:09;;;;;;;1999.90;999.90;;;;;;;12.65;100.00;96319.53;5056993;28;20029;-79
2022/09/29 03:37:34;;;;;;;1999.90;999.90;;;;;;;12.57;100.00;96304.00;5058211;28;20078;-78
2022/09/29 03:40:00;;;;;;;1999.90;999.90;;;;;;;12.64;100.00;96322.59;5059327;28;20109;-78
2022/09/29 03:42:27;;;;;;;1999.90;999.90;;;;;;;12.59;100.00;96307.19;5061206;28;20036;-78
2022/09/29 03:44:52;;;;;;;1999.90;999.90;;;;;;;12.59;100.00;96298.19;5061670;28;20024;-79
2022/09/29 03:47:17;;;;;;;1999.90;999.90;;;;;;;12.57;100.00;96284.00;5058335;28;20025;-77
2022/09/29 03:49:43;;;;;;;1999.90;999.90;;;;;;;12.54;100.00;96296.47;5055355;28;20826;-77
2022/09/29 03:52:08;;;;;;;1999.90;999.90;;;;;;;12.51;100.00;96302.66;5063367;28;20074;-78
2022/09/29 03:54:33;;;;;;;1999.90;999.90;;;;;;;12.48;100.00;96281.41;5057864;28;20075;-78
2022/09/29 03:56:59;;;;;;;1999.90;999.90;;;;;;;12.55;100.00;96287.09;5057395;28;20112;-79
2022/09/29 03:59:24;;;;;;;1999.90;999.90;;;;;;;12.57;100.00;96282.06;5057272;28;20108;-78
2022/09/29 04:01:49;;;;;;;1999.90;999.90;;;;;;;12.59;100.00;96270.75;5055397;28;20025;-78
2022/09/29 04:04:15;;;;;;;1999.90;999.90;;;;;;;12.53;100.00;96272.91;5055693;28;20028;-77
2022/09/29 04:06:40;;;;;;;1999.90;999.90;;;;;;;12.63;100.00;96282.59;5057918;28;20108;-78
2022/09/29 04:09:05;;;;;;;1999.90;999.90;;;;;;;12.62;100.00;96292.00;5057825;28;20032;-78
2022/09/29 04:11:31;;;;;;;1999.90;999.90;;;;;;;12.47;100.00;96301.75;5062352;28;20033;-82
2022/09/29 04:13:56;;;;;;;1999.90;999.90;;;;;;;12.54;100.00;96293.72;5060916;28;20025;-80
2022/09/29 04:16:21;;;;;;;1999.90;999.90;;;;;;;12.61;100.00;96284.91;5057330;28;20025;-79
2022/09/29 04:18:47;;;;;;;1999.90;999.90;;;;;;;12.57;100.00;96301.25;5059033;28;20044;-78
2022/09/29 04:21:12;;;;;;;1999.90;999.90;;;;;;;12.61;100.00;96302.16;5056282;28;20037;-81
2022/09/29 04:23:37;;;;;;;1999.90;999.90;;;;;;;12.57;100.00;96304.00;5056756;28;20025;-78
2022/09/29 04:26:04;;;;;;;1999.90;999.90;;;;;;;12.57;100.00;96301.25;5074262;28;20013;-81
2022/09/29 04:28:30;;;;;;;1999.90;999.90;;;;;;;12.56;100.00;96304.38;5072335;28;20052;-81
2022/09/29 04:30:56;;;;;;;1999.90;999.90;;;;;;;12.58;100.00;96313.84;5060587;28;20528;-79
2022/09/29 04:33:21;;;;;;;1999.90;999.90;;;;;;;12.53;100.00;96310.56;5062345;28;20028;-80
2022/09/29 04:35:46;;;;;;;1999.90;999.90;;;;;;;12.64;100.00;96309.69;5063936;28;20036;-78
2022/09/29 04:38:12;;;;;;;1999.90;999.90;;;;;;;12.57;100.00;96293.03;5063654;28;20025;-79
2022/09/29 04:40:37;;;;;;;1999.90;999.90;;;;;;;12.54;100.00;96299.22;5062133;28;20051;-81
2022/09/29 04:43:03;;;;;;;1999.90;999.90;;;;;;;12.46;100.00;96288.41;5063255;28;20034;-80
2022/09/29 04:45:29;;;;;;;1999.90;999.90;;;;;;;12.41;100.00;96292.16;5068136;28;20010;-80
2022/09/29 04:47:55;;;;;;;1999.90;999.90;;;;;;;12.37;100.00;96279.53;5063244;28;20025;-81
2022/09/29 04:50:21;;;;;;;1999.90;999.90;;;;;;;12.37;100.00;96291.28;5063892;28;20013;-81
2022/09/29 04:52:47;;;;;;;1999.90;999.90;;;;;;;12.37;100.00;96310.47;5069730;28;20021;-78
2022/09/29 04:55:12;;;;;;;1999.90;999.90;;;;;;;12.35;100.00;96310.00;5067997;28;20524;-79
2022/09/29 04:57:40;;;;;;;1999.90;999.90;;;;;;;12.33;100.00;96304.09;5067756;28;20504;-76
2022/09/29 05:00:06;;;;;;;1999.90;999.90;;;;;;;12.39;100.00;96313.66;5066521;28;20028;-77
2022/09/29 05:02:33;;;;;;;1999.90;999.90;;;;;;;12.41;100.00;96316.03;5072178;28;20033;-77
2022/09/29 05:04:58;;;;;;;1999.90;999.90;;;;;;;12.43;100.00;96311.84;5075705;28;20005;-80
2022/09/29 05:07:24;;;;;;;1999.90;999.90;;;;;;;12.45;100.00;96315.00;5074330;28;20052;-81
2022/09/29 05:09:49;;;;;;;1999.90;999.90;;;;;;;12.48;100.00;96313.53;5071668;28;20009;-82
2022/09/29 05:12:14;;;;;;;1999.90;999.90;;;;;;;12.42;100.00;96320.41;5075439;28;20043;-80
2022/09/29 05:14:40;;;;;;;1999.90;999.90;;;;;;;12.40;100.00;96339.16;5077112;28;20611;-75
2022/09/29 05:17:05;;;;;;;1999.90;999.90;;;;;;;12.39;100.00;96343.81;5053349;28;20025;-73
2022/09/29 05:19:31;;;;;;;1999.90;999.90;;;;;;;12.35;100.00;96335.50;5068255;28;20044;-76
2022/09/29 05:21:59;;;;;;;1999.90;999.90;;;;;;;12.42;100.00;96339.59;5069862;28;20033;-82
2022/09/29 05:24:25;;;;;;;1999.90;999.90;;;;;;;12.52;100.00;96336.38;5070669;28;20040;-79
2022/09/29 05:26:50;;;;;;;1999.90;999.90;;;;;;;12.45;100.00;96347.13;5073390;28;20029;-78
2022/09/29 05:29:16;;;;;;;1999.90;999.90;;;;;;;12.43;100.00;96358.44;5069494;28;20029;-79
2022/09/29 05:31:41;;;;;;;1999.90;999.90;;;;;;;12.45;100.00;96356.16;5057426;28;20121;-77
2022/09/29 05:34:07;;;;;;;1999.90;999.90;;;;;;;12.53;100.00;96338.75;5056913;28;20036;-79
2022/09/29 05:36:32;;;;;;;1999.90;999.90;;;;;;;12.54;100.00;96332.13;5062835;28;20486;-78
2022/09/29 05:38:58;;;;;;;1999.90;999.90;;;;;;;12.62;100.00;96328.47;5063639;28;20036;-78
2022/09/29 05:41:23;;;;;;;1999.90;999.90;;;;;;;12.54;100.00;96339.56;5061323;28;20449;-78
2022/09/29 05:43:52;;;;;;;1999.90;999.90;;;;;;;12.56;100.00;96340.78;5067247;28;20021;-79
2022/09/29 05:46:18;;;;;;;1999.90;999.90;;;;;;;12.64;100.00;96342.63;5071381;28;20074;-79
2022/09/29 05:48:49;;;;;;;1999.90;999.90;;;;;;;12.62;100.00;96317.50;5059028;28;20017;-78
2022/09/29 05:51:19;;;;;;;1999.90;999.90;;;;;;;12.63;100.00;96321.81;5071023;28;20024;-80
2022/09/29 05:53:44;;;;;;;1999.90;999.90;;;;;;;12.49;100.00;96335.13;5071815;28;20044;-77
2022/09/29 05:56:13;;;;;;;1999.90;999.90;;;;;;;12.65;100.00;96352.44;5060307;28;20021;-79
2022/09/29 05:58:39;;;;;;;1999.90;999.90;;;;;;;12.66;100.00;96359.50;5057589;28;20021;-78
2022/09/29 06:01:09;;;;;;;1999.90;999.90;;;;;;;12.74;100.00;96352.28;5066725;28;20520;-81
2022/09/29 06:03:36;;;;;;;1999.90;999.90;;;;;;;12.77;100.00;96354.34;5054700;28;20025;-77
2022/09/29 06:06:08;;;;;;;1999.90;999.90;;;;;;;12.80;100.00;96365.44;5053431;28;20094;-77
2022/09/29 06:08:34;;;;;;;1999.90;999.90;;;;;;;12.87;100.00;96359.34;5055131;28;20040;-79
2022/09/29 06:11:08;;;;;;;1999.90;999.90;;;;;;;12.92;100.00;96352.78;5057459;28;20021;-79
2022/09/29 06:13:37;;;;;;;1999.90;999.90;;;;;;;12.86;100.00;96353.06;5064242;28;20041;-80
2022/09/29 06:16:03;;;;;;;1999.90;999.90;;;;;;;13.00;100.00;96341.66;5068778;28;20021;-81
2022/09/29 06:18:29;;;;;;;1999.90;999.90;;;;;;;13.04;100.00;96352.72;5067877;28;20163;-85
2022/09/29 06:21:01;;;;;;;1999.90;999.90;;;;;;;13.05;100.00;96343.34;5070650;28;20049;-82
2022/09/29 06:23:26;;;;;;;1999.90;999.90;;;;;;;13.07;100.00;96363.00;5072631;28;20021;-83
2022/09/29 06:25:56;;;;;;;1999.90;999.90;;;;;;;12.96;100.00;96349.00;5076472;28;20035;-86
2022/09/29 06:28:21;;;;;;;1999.90;999.90;;;;;;;12.93;100.00;96357.13;5074133;28;20032;-84
2022/09/29 06:30:47;;;;;;;1999.90;999.90;;;;;;;12.97;100.00;96360.78;5068171;28;20048;-79
2022/09/29 06:33:12;;;;;;;1999.90;999.90;;;;;;;12.98;100.00;96356.88;5057485;28;20029;-77
2022/09/29 06:38:21;;;;;;;1999.90;999.90;;;;;;;12.81;100.00;96345.06;5054858;28;20071;-78
2022/09/29 06:40:47;;;;;;;1999.90;999.90;;;;;;;12.76;100.00;96353.53;5057089;28;20044;-79
2022/09/29 06:43:12;;;;;;;1999.90;999.90;;;;;;;12.70;100.00;96348.66;5055235;28;20040;-77
2022/09/29 06:45:37;;;;;;;1999.90;999.90;;;;;;;12.61;100.00;96362.50;5058118;28;20036;-78
2022/09/29 06:48:03;;;;;;;1999.90;999.90;;;;;;;12.60;100.00;96371.88;5060748;28;20142;-79
2022/09/29 06:50:28;;;;;;;1999.90;999.90;;;;;;;12.55;100.00;96379.56;5058486;28;20021;-78
2022/09/29 06:52:54;;;;;;;1999.90;999.90;;;;;;;12.54;100.00;96395.22;5057260;28;20041;-77
2022/09/29 06:55:19;;;;;;;1999.90;999.90;;;;;;;12.62;100.00;96399.78;5057258;28;20510;-78
2022/09/29 06:57:44;;;;;;;1999.90;999.90;;;;;;;12.65;100.00;96393.59;5055108;28;20037;-78
2022/09/29 07:00:10;;;;;;;1999.90;999.90;;;;;;;12.63;100.00;96376.66;5056376;28;20071;-78
2022/09/29 07:02:35;;;;;;;1999.90;999.90;;;;;;;12.68;100.00;96375.63;5056346;28;20386;-77
2022/09/29 07:05:01;;;;;;;1999.90;999.90;;;;;;;12.62;100.00;96366.88;5058923;28;20155;-77
2022/09/29 07:07:26;;;;;;;1999.90;999.90;;;;;;;12.55;100.00;96352.94;5063958;28;20028;-78
2022/09/29 07:09:51;;;;;;;1999.90;999.90;;;;;;;12.44;100.00;96351.81;5064670;28;20035;-75
2022/09/29 07:12:17;;;;;;;1999.90;999.90;;;;;;;12.43;100.00;96366.69;5059476;28;20033;-78
2022/09/29 07:14:42;;;;;;;1999.90;999.90;;;;;;;12.41;100.00;96368.16;5055517;28;20524;-76
2022/09/29 07:17:08;;;;;;;1999.90;999.90;;;;;;;12.43;100.00;96374.91;5073394;28;20104;-77
2022/09/29 07:19:33;;;;;;;1999.90;999.90;;;;;;;12.38;100.00;96379.81;5058378;28;20091;-77
2022/09/29 07:21:59;;;;;;;1999.90;999.90;;;;;;;12.43;100.00;96413.28;5058968;28;20029;-77
2022/09/29 07:24:25;;;;;;;1999.90;999.90;;;;;;;12.44;100.00;96425.84;5059350;28;20546;-77
2022/09/29 07:26:50;;;;;;;1999.90;999.90;;;;;;;12.48;100.00;96393.84;5057894;28;20053;-77
2022/09/29 07:29:16;;;;;;;1999.90;999.90;;;;;;;12.53;100.00;96385.38;5058991;28;20060;-78
2022/09/29 07:31:42;;;;;;;1999.90;999.90;;;;;;;12.50;100.00;96386.06;5057669;28;20063;-79
2022/09/29 07:34:07;;;;;;;1999.90;999.90;;;;;;;12.58;100.00;96406.28;5058126;28;20025;-79
2022/09/29 07:36:32;;;;;;;1999.90;999.90;;;;;;;12.44;100.00;96414.88;5056841;28;20029;-78
2022/09/29 07:38:58;;;;;;;1999.90;999.90;;;;;;;12.55;100.00;96402.31;5058916;28;20516;-78
2022/09/29 07:41:23;;;;;;;1999.90;999.90;;;;;;;12.48;100.00;96402.09;5059224;28;20088;-78
2022/09/29 07:43:50;;;;;;;1999.90;999.90;;;;;;;12.56;100.00;96412.09;5061024;28;20506;-79
2022/09/29 07:46:16;;;;;;;1999.90;999.90;;;;;;;12.60;100.00;96420.44;5059926;28;20071;-78
2022/09/29 07:48:41;;;;;;;1999.90;999.90;;;;;;;12.65;100.00;96437.50;5061857;28;20055;-80
2022/09/29 07:51:15;;;;;;;1999.90;999.90;;;;;;;12.71;100.00;96427.06;5060046;28;20036;-78
2022/09/29 07:53:41;;;;;;;1999.90;999.90;;;;;;;12.77;100.00;96411.97;5061306;28;20035;-78
2022/09/29 07:56:13;;;;;;;1999.90;999.90;;;;;;;12.69;100.00;96408.19;5046574;28;20116;-77
2022/09/29 07:58:39;;;;;;;1999.90;999.90;;;;;;;12.74;100.00;96415.41;5041001;28;20509;-78
2022/09/29 08:01:09;;;;;;;1999.90;999.90;;;;;;;12.72;100.00;96421.22;5040315;28;20064;-77
2022/09/29 08:03:36;;;;;;;1999.90;999.90;;;;;;;12.72;100.00;96423.97;5040822;28;20040;-77
2022/09/29 08:06:01;;;;;;;1999.90;999.90;;;;;;;12.74;100.00;96421.69;5040173;28;20034;-77
2022/09/29 08:08:26;;;;;;;1999.90;999.90;;;;;;;12.80;100.00;96414.81;5042572;28;20018;-78
2022/09/29 08:11:03;;;;;;;1999.90;999.90;;;;;;;12.83;100.00;96422.34;5045374;28;20092;-78
2022/09/29 08:13:30;;;;;;;1999.90;999.90;;;;;;;12.88;100.00;96429.53;5059004;28;20487;-77
2022/09/29 08:15:59;;;;;;;1999.90;999.90;;;;;;;13.08;100.00;96422.25;5061774;28;20014;-78
2022/09/29 08:18:28;;;;;;;1999.90;999.90;;;;;;;13.14;100.00;96415.41;5043544;28;20026;-77
2022/09/29 08:20:54;;;;;;;1999.90;999.90;;;;;;;13.11;100.00;96424.34;5044925;28;20013;-78
2022/09/29 08:23:22;;;;;;;1999.90;999.90;;;;;;;13.16;100.00;96444.09;5047140;28;20084;-77
2022/09/29 08:25:48;;;;;;;1999.90;999.90;;;;;;;13.20;100.00;96455.19;5041039;28;20017;-78
2022/09/29 08:28:13;;;;;;;1999.90;999.90;;;;;;;13.09;100.00;96441.19;5039410;28;20029;-77
2022/09/29 08:30:38;;;;;;;1999.90;999.90;;;;;;;13.09;100.00;96437.63;5041168;28;20072;-79
2022/09/29 08:33:07;;;;;;;1999.90;999.90;;;;;;;13.04;100.00;96446.06;5040384;28;20029;-78
2022/09/29 08:35:33;;;;;;;1999.90;999.90;;;;;;;13.01;100.00;96460.47;5041436;28;20474;-79
2022/09/29 08:37:58;;;;;;;1999.90;999.90;;;;;;;13.07;100.00;96467.31;5040709;28;20093;-78
2022/09/29 08:40:28;;;;;;;1999.90;999.90;;;;;;;13.14;100.00;96459.34;5051986;28;20048;-78
2022/09/29 08:43:10;;;;;;;1999.90;999.90;;;;;;;13.14;100.00;96456.59;5058165;28;20154;-77
2022/09/29 08:45:46;;;;;;;1999.90;999.90;;;;;;;13.05;100.00;96447.66;5059422;28;20020;-78
2022/09/29 08:48:23;;;;;;;1999.90;999.90;;;;;;;12.87;100.00;96472.63;5058032;28;20028;-78
2022/09/29 08:50:56;;;;;;;1999.90;999.90;;;;;;;12.93;100.00;96488.88;5059053;28;20032;-78
2022/09/29 08:53:24;;;;;;;1999.90;999.90;;;;;;;12.95;100.00;96487.38;5057488;28;20389;-78
2022/09/29 08:56:05;;;;;;;1999.90;999.90;;;;;;;12.99;100.00;96480.06;5059349;28;20028;-77
2022/09/29 08:58:32;;;;;;;1999.90;999.90;;;;;;;12.94;100.00;96485.78;5057493;28;20025;-78
2022/09/29 09:01:08;;;;;;;1999.90;999.90;;;;;;;13.00;100.00;96491.84;5060119;28;20029;-77
2022/09/29 09:04:01;;;;;;;1999.90;999.90;;;;;;;13.08;100.00;96485.41;5060327;28;20024;-78
2022/09/29 09:06:56;;;;;;;1999.90;999.90;;;;;;;12.96;100.00;96475.25;5058187;28;20379;-78
2022/09/29 09:10:01;;;;;;;1999.90;999.90;;;;;;;12.96;100.00;96474.47;5060707;28;20516;-78
2022/09/29 09:12:48;;;;;;;1999.90;999.90;;;;;;;12.97;100.00;96492.53;5075822;28;20020;-78
2022/09/29 09:15:26;;;;;;;1999.90;999.90;;;;;;;12.90;100.00;96504.09;5070103;28;20452;-81
2022/09/29 09:17:54;;;;;;;1999.90;999.90;;;;;;;13.01;100.00;96512.63;5059155;28;20409;-76
2022/09/29 09:20:43;;;;;;;1999.90;999.90;;;;;;;12.89;100.00;96527.19;5055521;28;20032;-79
2022/09/29 09:24:01;;;;;;;1999.90;999.90;;;;;;;12.91;100.00;96538.59;5057355;28;20021;-77
2022/09/29 09:26:41;;;;;;;1999.90;999.90;;;;;;;12.95;100.00;96527.75;5033699;28;20048;-78
2022/09/29 09:29:17;;;;;;;1999.90;999.90;;;;;;;12.87;100.00;96522.03;5057440;28;20033;-77
2022/09/29 09:31:50;;;;;;;1999.90;999.90;;;;;;;12.76;100.00;96507.19;5055980;28;20498;-79
2022/09/29 09:34:26;;;;;;;1999.90;999.90;;;;;;;12.80;100.00;96508.13;5057184;28;20120;-78
2022/09/29 09:37:02;;;;;;;1999.90;999.90;;;;;;;12.82;100.00;96505.00;5055467;28;20037;-79
2022/09/29 09:39:53;;;;;;;1999.90;999.90;;;;;;;12.85;100.00;96521.59;5055761;28;20028;-77
2022/09/29 09:42:26;;;;;;;1999.90;999.90;;;;;;;13.05;100.00;96532.78;5056193;28;20483;-77
2022/09/29 09:44:58;;;;;;;1999.90;999.90;;;;;;;13.03;100.00;96518.59;5056336;28;20109;-78
2022/09/29 09:48:13;;;;;;;1999.90;999.90;;;;;;;12.87;100.00;96524.00;5058384;28;20051;-78
2022/09/29 09:50:41;;;;;;;1999.90;999.90;;;;;;;12.81;100.00;96523.41;5057756;28;20045;-77
2022/09/29 09:53:36;;;;;;;1999.90;999.90;;;;;;;12.75;100.00;96522.03;5058452;28;20081;-78
2022/09/29 09:56:52;;;;;;;1999.90;999.90;;;;;;;12.73;100.00;96529.84;5056238;28;20540;-77
2022/09/29 09:59:20;;;;;;;1999.90;999.90;;;;;;;12.76;100.00;96537.38;5020385;28;20040;-78
2022/09/29 10:01:46;;;;;;;1999.90;999.90;;;;;;;12.70;100.00;96529.72;5036292;28;20036;-79
2022/09/29 10:04:12;;;;;;;1999.90;999.90;;;;;;;12.61;100.00;96529.84;5046244;28;20040;-78
2022/09/29 10:06:37;;;;;;;1999.90;999.90;;;;;;;12.59;100.00;96512.91;5055563;28;20063;-76
2022/09/29 10:09:03;;;;;;;1999.90;999.90;;;;;;;12.36;100.00;96522.75;5055679;28;20033;-78
2022/09/29 10:11:31;;;;;;;1999.90;999.90;;;;;;;12.30;100.00;96526.88;5055882;28;20029;-77
2022/09/29 10:14:03;;;;;;;1999.90;999.90;;;;;;;12.10;100.00;96498.38;5054629;28;20090;-79
2022/09/29 10:16:42;;;;;;;1999.90;999.90;;;;;;;12.04;100.00;96485.25;5056588;28;20481;-78
2022/09/29 10:19:09;;;;;;;1999.90;999.90;;;;;;;12.01;100.00;96505.09;5054545;28;20025;-77
2022/09/29 10:21:42;;;;;;;1999.90;999.90;;;;;;;12.17;100.00;96512.34;5057933;28;20036;-78
2022/09/29 10:24:29;;;;;;;1999.90;999.90;;;;;;;12.37;100.00;96527.09;5060083;28;20028;-78
2022/09/29 10:26:58;;;;;;;1999.90;999.90;;;;;;;12.45;100.00;96525.38;5059371;28;20083;-77
2022/09/29 10:29:41;;;;;;;1999.90;999.90;;;;;;;12.41;100.00;96527.19;5059750;28;20426;-78
2022/09/29 10:32:13;;;;;;;1999.90;999.90;;;;;;;12.45;100.00;96523.44;5058803;28;20044;-79
2022/09/29 10:34:45;;;;;;;1999.90;999.90;;;;;;;12.52;100.00;96522.88;5058379;28;20039;-76
2022/09/29 10:37:34;;;;;;;1999.90;999.90;;;;;;;12.35;100.00;96518.41;5060766;28;20390;-80
2022/09/29 10:40:22;;;;;;;1999.90;999.90;;;;;;;12.27;100.00;96528.34;5058696;28;20061;-79
2022/09/29 10:42:49;;;;;;;1999.90;999.90;;;;;;;12.16;100.00;96518.16;5056639;28;20020;-79
2022/09/29 10:45:16;;;;;;;1999.90;999.90;;;;;;;12.14;100.00;96528.66;5067894;28;20501;-80
2022/09/29 10:48:05;;;;;;;1999.90;999.90;;;;;;;12.05;100.00;96519.75;5062124;28;20394;-78
2022/09/29 10:50:33;;;;;;;1999.90;999.90;;;;;;;11.98;100.00;96519.50;5059663;28;20537;-78
2022/09/29 10:53:05;;;;;;;1999.90;999.90;;;;;;;11.89;100.00;96535.22;5062289;28;20075;-77
2022/09/29 10:55:46;;;;;;;1999.90;999.90;;;;;;;11.83;100.00;96553.81;5064214;28;20062;-79
2022/09/29 10:58:34;;;;;;;1999.90;999.90;;;;;;;11.80;100.00;96554.50;5073375;28;20027;-77
2022/09/29 11:01:09;;;;;;;1999.90;999.90;;;;;;;11.89;100.00;96548.94;5073619;28;20032;-77
2022/09/29 11:03:45;;;;;;;1999.90;999.90;;;;;;;11.82;100.00;96538.53;5068967;28;20025;-77
2022/09/29 11:06:12;;;;;;;1999.90;999.90;;;;;;;11.65;100.00;96527.72;5059380;28;20060;-80